Terminal Aerodrome Forecast
Issued by NWS

Home | Current Version | Previous Version | Text Only | Print | Product List | Glossary On
Versions: 1 2 3 4 5 6 7 8 9 10 11 12 13 14 15 16
000
FTUS43 KJKL 181700
TAFSME
TAF
KSME 181740Z 1818/1918 31007KT P6SM VCSH SCT025 OVC035
     FM190400 35003KT P6SM BKN025
     FM190800 36003KT P6SM BKN015
     FM191100 00000KT 4SM BR FEW250
     FM191400 00000KT P6SM SCT050=

USA.gov is the U.S. government's official web portal to all federal, state and local government web resources and services.